sensor_id;sensor_type;location;lat;lon;timestamp;pressure;altitude;pressure_sealevel;temperature;humidity
38852;BME280;24605;50.092;9.182;2022-08-01T00:00:01;97897.22;;;21.63;66.17
38852;BME280;24605;50.092;9.182;2022-08-01T00:02:28;97880.69;;;21.49;66.66
38852;BME280;24605;50.092;9.182;2022-08-01T00:04:56;97899.03;;;21.45;67.33
38852;BME280;24605;50.092;9.182;2022-08-01T00:07:22;97900.53;;;21.53;67.02
38852;BME280;24605;50.092;9.182;2022-08-01T00:09:49;97895.31;;;21.47;67.58
38852;BME280;24605;50.092;9.182;2022-08-01T00:12:17;97899.84;;;21.29;68.39
38852;BME280;24605;50.092;9.182;2022-08-01T00:14:43;97873.88;;;21.24;68.37
38852;BME280;24605;50.092;9.182;2022-08-01T00:17:10;97901.53;;;21.35;68.52
38852;BME280;24605;50.092;9.182;2022-08-01T00:19:36;97900.56;;;21.24;69.10
38852;BME280;24605;50.092;9.182;2022-08-01T00:22:03;97897.81;;;21.07;69.75
38852;BME280;24605;50.092;9.182;2022-08-01T00:24:29;97904.69;;;21.03;70.47
38852;BME280;24605;50.092;9.182;2022-08-01T00:26:56;97904.13;;;21.01;70.58
38852;BME280;24605;50.092;9.182;2022-08-01T00:29:24;97888.19;;;20.89;70.73
38852;BME280;24605;50.092;9.182;2022-08-01T00:31:50;97877.19;;;20.86;70.96
38852;BME280;24605;50.092;9.182;2022-08-01T00:34:17;97910.78;;;20.87;71.68
38852;BME280;24605;50.092;9.182;2022-08-01T00:36:43;97907.28;;;20.86;71.77
38852;BME280;24605;50.092;9.182;2022-08-01T00:39:11;97901.88;;;20.81;71.99
38852;BME280;24605;50.092;9.182;2022-08-01T00:41:38;97895.50;;;20.70;72.68
38852;BME280;24605;50.092;9.182;2022-08-01T00:44:05;97898.97;;;20.82;72.22
38852;BME280;24605;50.092;9.182;2022-08-01T00:46:33;97896.56;;;20.69;72.88
38852;BME280;24605;50.092;9.182;2022-08-01T00:49:00;97892.50;;;20.66;73.22
38852;BME280;24605;50.092;9.182;2022-08-01T00:51:27;97881.16;;;20.59;73.48
38852;BME280;24605;50.092;9.182;2022-08-01T00:53:54;97886.75;;;20.46;74.27
38852;BME280;24605;50.092;9.182;2022-08-01T00:56:22;97894.06;;;20.39;74.83
38852;BME280;24605;50.092;9.182;2022-08-01T00:58:50;97895.34;;;20.48;74.67
38852;BME280;24605;50.092;9.182;2022-08-01T01:01:17;97886.44;;;20.42;74.78
38852;BME280;24605;50.092;9.182;2022-08-01T01:03:47;97895.34;;;20.48;74.94
38852;BME280;24605;50.092;9.182;2022-08-01T01:06:23;97893.13;;;20.45;75.14
38852;BME280;24605;50.092;9.182;2022-08-01T01:08:58;97895.91;;;20.38;75.19
38852;BME280;24605;50.092;9.182;2022-08-01T01:11:28;97892.81;;;20.17;76.60
38852;BME280;24605;50.092;9.182;2022-08-01T01:14:01;97881.47;;;20.10;76.45
38852;BME280;24605;50.092;9.182;2022-08-01T01:16:28;97901.84;;;20.28;76.50
38852;BME280;24605;50.092;9.182;2022-08-01T01:19:00;97897.44;;;20.34;76.18
38852;BME280;24605;50.092;9.182;2022-08-01T01:21:36;97896.75;;;20.15;77.00
38852;BME280;24605;50.092;9.182;2022-08-01T01:24:13;97896.53;;;20.16;76.98
38852;BME280;24605;50.092;9.182;2022-08-01T01:26:51;97895.84;;;20.09;77.71
38852;BME280;24605;50.092;9.182;2022-08-01T01:29:24;97901.28;;;20.02;78.09
38852;BME280;24605;50.092;9.182;2022-08-01T01:31:56;97907.88;;;20.12;77.94
38852;BME280;24605;50.092;9.182;2022-08-01T01:34:24;97902.66;;;20.05;78.19
38852;BME280;24605;50.092;9.182;2022-08-01T01:36:54;97909.69;;;20.11;78.07
38852;BME280;24605;50.092;9.182;2022-08-01T01:39:24;97910.63;;;20.05;78.33
38852;BME280;24605;50.092;9.182;2022-08-01T01:41:53;97912.72;;;20.03;78.75
38852;BME280;24605;50.092;9.182;2022-08-01T01:44:22;97899.16;;;19.93;78.76
38852;BME280;24605;50.092;9.182;2022-08-01T01:46:51;97908.31;;;19.97;79.07
38852;BME280;24605;50.092;9.182;2022-08-01T01:49:20;97898.25;;;19.87;79.62
38852;BME280;24605;50.092;9.182;2022-08-01T01:51:48;97914.56;;;19.91;79.88
38852;BME280;24605;50.092;9.182;2022-08-01T01:54:17;97917.44;;;19.89;80.13
38852;BME280;24605;50.092;9.182;2022-08-01T01:56:44;97918.97;;;19.97;79.96
38852;BME280;24605;50.092;9.182;2022-08-01T01:59:19;97911.22;;;19.95;80.22
38852;BME280;24605;50.092;9.182;2022-08-01T02:01:49;97907.72;;;19.95;80.41
38852;BME280;24605;50.092;9.182;2022-08-01T02:04:18;97906.00;;;19.88;80.50
38852;BME280;24605;50.092;9.182;2022-08-01T02:06:46;97914.22;;;19.87;81.06
38852;BME280;24605;50.092;9.182;2022-08-01T02:09:15;97894.28;;;19.78;81.01
38852;BME280;24605;50.092;9.182;2022-08-01T02:11:44;97902.03;;;19.79;81.52
38852;BME280;24605;50.092;9.182;2022-08-01T02:14:13;97917.09;;;19.85;81.69
38852;BME280;24605;50.092;9.182;2022-08-01T02:16:42;97919.84;;;19.79;82.32
38852;BME280;24605;50.092;9.182;2022-08-01T02:19:12;97924.28;;;19.85;81.99
38852;BME280;24605;50.092;9.182;2022-08-01T02:21:40;97919.91;;;19.91;82.01
38852;BME280;24605;50.092;9.182;2022-08-01T02:24:13;97924.13;;;19.80;82.60
38852;BME280;24605;50.092;9.182;2022-08-01T02:26:44;97923.25;;;19.98;81.65
38852;BME280;24605;50.092;9.182;2022-08-01T02:29:15;97916.66;;;19.88;81.50
38852;BME280;24605;50.092;9.182;2022-08-01T02:31:44;97927.53;;;19.99;81.18
38852;BME280;24605;50.092;9.182;2022-08-01T02:34:17;97926.50;;;20.00;81.27
38852;BME280;24605;50.092;9.182;2022-08-01T02:36:45;97924.28;;;19.97;81.37
38852;BME280;24605;50.092;9.182;2022-08-01T02:39:14;97932.03;;;20.10;80.78
38852;BME280;24605;50.092;9.182;2022-08-01T02:41:50;97915.72;;;19.95;81.47
38852;BME280;24605;50.092;9.182;2022-08-01T02:44:23;97924.88;;;20.11;80.76
38852;BME280;24605;50.092;9.182;2022-08-01T02:46:53;97932.28;;;20.09;80.68
38852;BME280;24605;50.092;9.182;2022-08-01T02:49:25;97931.47;;;20.08;80.90
38852;BME280;24605;50.092;9.182;2022-08-01T02:51:54;97932.63;;;20.00;81.18
38852;BME280;24605;50.092;9.182;2022-08-01T02:54:22;97927.19;;;19.95;81.47
38852;BME280;24605;50.092;9.182;2022-08-01T02:56:51;97931.22;;;19.98;81.68
38852;BME280;24605;50.092;9.182;2022-08-01T02:59:22;97905.28;;;19.81;81.97
38852;BME280;24605;50.092;9.182;2022-08-01T03:01:52;97904.19;;;19.70;82.16
38852;BME280;24605;50.092;9.182;2022-08-01T03:04:21;97927.16;;;19.83;82.63
38852;BME280;24605;50.092;9.182;2022-08-01T03:06:48;97930.06;;;19.94;82.29
38852;BME280;24605;50.092;9.182;2022-08-01T03:09:16;97930.19;;;19.99;81.83
38852;BME280;24605;50.092;9.182;2022-08-01T03:11:44;97931.81;;;20.00;81.87
38852;BME280;24605;50.092;9.182;2022-08-01T03:14:12;97922.22;;;19.99;81.50
38852;BME280;24605;50.092;9.182;2022-08-01T03:16:41;97919.66;;;20.04;81.19
38852;BME280;24605;50.092;9.182;2022-08-01T03:19:09;97919.31;;;19.88;82.05
38852;BME280;24605;50.092;9.182;2022-08-01T03:21:39;97913.63;;;20.09;80.90
38852;BME280;24605;50.092;9.182;2022-08-01T03:24:07;97922.66;;;20.08;80.83
38852;BME280;24605;50.092;9.182;2022-08-01T03:26:35;97927.19;;;20.07;80.57
38852;BME280;24605;50.092;9.182;2022-08-01T03:29:05;97927.88;;;20.02;80.61
38852;BME280;24605;50.092;9.182;2022-08-01T03:31:34;97924.75;;;20.06;80.95
38852;BME280;24605;50.092;9.182;2022-08-01T03:34:01;97915.03;;;19.87;81.65
38852;BME280;24605;50.092;9.182;2022-08-01T03:36:29;97936.09;;;20.01;81.50
38852;BME280;24605;50.092;9.182;2022-08-01T03:39:01;97925.53;;;19.82;82.40
38852;BME280;24605;50.092;9.182;2022-08-01T03:41:32;97922.13;;;19.75;82.99
38852;BME280;24605;50.092;9.182;2022-08-01T03:44:03;97928.88;;;19.78;82.89
38852;BME280;24605;50.092;9.182;2022-08-01T03:46:35;97931.28;;;19.67;83.68
38852;BME280;24605;50.092;9.182;2022-08-01T03:49:07;97935.91;;;19.72;83.64
38852;BME280;24605;50.092;9.182;2022-08-01T03:51:35;97935.69;;;19.73;83.69
38852;BME280;24605;50.092;9.182;2022-08-01T03:54:05;97918.91;;;19.61;84.10
38852;BME280;24605;50.092;9.182;2022-08-01T03:56:33;97931.63;;;19.71;84.31
38852;BME280;24605;50.092;9.182;2022-08-01T03:59:00;97927.78;;;19.67;84.31
38852;BME280;24605;50.092;9.182;2022-08-01T04:01:28;97931.47;;;19.54;85.17
38852;BME280;24605;50.092;9.182;2022-08-01T04:03:58;97934.25;;;19.59;84.88
38852;BME280;24605;50.092;9.182;2022-08-01T04:06:25;97933.66;;;19.45;85.69
38852;BME280;24605;50.092;9.182;2022-08-01T04:08:51;97932.06;;;19.56;84.99
38852;BME280;24605;50.092;9.182;2022-08-01T04:11:23;97931.72;;;19.64;84.80
38852;BME280;24605;50.092;9.182;2022-08-01T04:13:51;97932.28;;;19.54;85.18
38852;BME280;24605;50.092;9.182;2022-08-01T04:16:17;97934.03;;;19.61;85.04
38852;BME280;24605;50.092;9.182;2022-08-01T04:18:44;97935.78;;;19.67;84.26
38852;BME280;24605;50.092;9.182;2022-08-01T04:21:10;97940.88;;;19.68;84.24
38852;BME280;24605;50.092;9.182;2022-08-01T04:23:38;97940.53;;;19.65;84.28
38852;BME280;24605;50.092;9.182;2022-08-01T04:26:08;97914.44;;;19.43;84.58
38852;BME280;24605;50.092;9.182;2022-08-01T04:28:37;97940.06;;;19.68;84.36
38852;BME280;24605;50.092;9.182;2022-08-01T04:31:08;97890.25;;;19.33;84.29
38852;BME280;24605;50.092;9.182;2022-08-01T04:33:38;97945.25;;;19.63;84.78
38852;BME280;24605;50.092;9.182;2022-08-01T04:36:06;97947.78;;;19.57;85.14
38852;BME280;24605;50.092;9.182;2022-08-01T04:38:34;97953.31;;;19.56;85.31
38852;BME280;24605;50.092;9.182;2022-08-01T04:41:02;97930.63;;;19.41;85.70
38852;BME280;24605;50.092;9.182;2022-08-01T04:43:31;97954.59;;;19.53;86.16
38852;BME280;24605;50.092;9.182;2022-08-01T04:46:02;97946.19;;;19.56;86.01
38852;BME280;24605;50.092;9.182;2022-08-01T04:48:29;97940.72;;;19.51;85.96
38852;BME280;24605;50.092;9.182;2022-08-01T04:50:57;97953.47;;;19.61;85.89
38852;BME280;24605;50.092;9.182;2022-08-01T04:53:24;97953.47;;;19.61;85.99
38852;BME280;24605;50.092;9.182;2022-08-01T04:55:51;97960.53;;;19.67;85.39
38852;BME280;24605;50.092;9.182;2022-08-01T04:58:18;97950.94;;;19.66;85.46
38852;BME280;24605;50.092;9.182;2022-08-01T05:00:45;97947.16;;;19.74;85.28
38852;BME280;24605;50.092;9.182;2022-08-01T05:03:13;97953.97;;;19.82;84.46
38852;BME280;24605;50.092;9.182;2022-08-01T05:05:39;97958.94;;;19.78;85.14
38852;BME280;24605;50.092;9.182;2022-08-01T05:08:06;97954.88;;;19.76;84.86
38852;BME280;24605;50.092;9.182;2022-08-01T05:10:32;97959.38;;;19.75;85.47
38852;BME280;24605;50.092;9.182;2022-08-01T05:12:59;97951.41;;;19.75;85.09
38852;BME280;24605;50.092;9.182;2022-08-01T05:15:25;97955.81;;;19.81;84.94
38852;BME280;24605;50.092;9.182;2022-08-01T05:17:52;97961.16;;;19.81;84.83
38852;BME280;24605;50.092;9.182;2022-08-01T05:20:20;97965.03;;;19.67;85.55
38852;BME280;24605;50.092;9.182;2022-08-01T05:22:46;97969.47;;;19.73;85.35
38852;BME280;24605;50.092;9.182;2022-08-01T05:25:13;97970.81;;;19.64;85.86
38852;BME280;24605;50.092;9.182;2022-08-01T05:27:39;97979.88;;;19.75;85.49
38852;BME280;24605;50.092;9.182;2022-08-01T05:30:07;97982.97;;;19.71;85.99
38852;BME280;24605;50.092;9.182;2022-08-01T05:32:34;97966.66;;;19.68;85.57
38852;BME280;24605;50.092;9.182;2022-08-01T05:35:00;97973.34;;;19.58;86.43
38852;BME280;24605;50.092;9.182;2022-08-01T05:37:28;97990.13;;;19.59;86.67
38852;BME280;24605;50.092;9.182;2022-08-01T05:39:55;97983.31;;;19.75;86.09
38852;BME280;24605;50.092;9.182;2022-08-01T05:42:21;97979.19;;;19.79;85.08
38852;BME280;24605;50.092;9.182;2022-08-01T05:44:48;97972.53;;;19.88;84.80
38852;BME280;24605;50.092;9.182;2022-08-01T05:47:15;97994.06;;;19.99;84.56
38852;BME280;24605;50.092;9.182;2022-08-01T05:49:42;97993.38;;;20.03;84.72
38852;BME280;24605;50.092;9.182;2022-08-01T05:52:09;97993.75;;;20.31;83.27
38852;BME280;24605;50.092;9.182;2022-08-01T05:54:36;97994.66;;;20.48;82.00
38852;BME280;24605;50.092;9.182;2022-08-01T05:57:03;97996.19;;;20.56;82.05
38852;BME280;24605;50.092;9.182;2022-08-01T05:59:30;98000.59;;;20.74;80.74
38852;BME280;24605;50.092;9.182;2022-08-01T06:01:56;97991.53;;;20.87;80.08
38852;BME280;24605;50.092;9.182;2022-08-01T06:04:23;97971.94;;;20.70;79.87
38852;BME280;24605;50.092;9.182;2022-08-01T06:06:50;98002.09;;;20.82;80.26
38852;BME280;24605;50.092;9.182;2022-08-01T06:09:16;97994.09;;;20.70;80.03
38852;BME280;24605;50.092;9.182;2022-08-01T06:11:44;97992.34;;;20.88;79.68
38852;BME280;24605;50.092;9.182;2022-08-01T06:14:10;97994.16;;;20.99;78.83
38852;BME280;24605;50.092;9.182;2022-08-01T06:16:37;97994.59;;;21.20;77.29
38852;BME280;24605;50.092;9.182;2022-08-01T06:19:03;97919.25;;;20.72;77.93
38852;BME280;24605;50.092;9.182;2022-08-01T06:21:30;98000.50;;;21.22;77.36
38852;BME280;24605;50.092;9.182;2022-08-01T06:23:56;98005.53;;;21.35;76.63
38852;BME280;24605;50.092;9.182;2022-08-01T06:26:23;97991.16;;;21.36;75.52
38852;BME280;24605;50.092;9.182;2022-08-01T06:28:51;98007.78;;;21.67;74.92
38852;BME280;24605;50.092;9.182;2022-08-01T06:31:17;98002.97;;;21.69;74.27
38852;BME280;24605;50.092;9.182;2022-08-01T06:33:44;97993.63;;;21.26;75.85
38852;BME280;24605;50.092;9.182;2022-08-01T06:36:11;98012.31;;;21.55;75.74
38852;BME280;24605;50.092;9.182;2022-08-01T06:38:37;98011.25;;;21.27;76.58
38852;BME280;24605;50.092;9.182;2022-08-01T06:41:04;98012.78;;;21.23;77.85
38852;BME280;24605;50.092;9.182;2022-08-01T06:43:30;98011.06;;;21.45;76.19
38852;BME280;24605;50.092;9.182;2022-08-01T06:45:58;98020.63;;;21.29;76.31
38852;BME280;24605;50.092;9.182;2022-08-01T06:48:25;98021.28;;;21.08;77.01
38852;BME280;24605;50.092;9.182;2022-08-01T06:50:51;98013.88;;;20.98;77.23
38852;BME280;24605;50.092;9.182;2022-08-01T06:53:32;98020.50;;;20.72;78.74
38852;BME280;24605;50.092;9.182;2022-08-01T06:55:59;98025.38;;;20.87;78.53
38852;BME280;24605;50.092;9.182;2022-08-01T06:58:26;98018.66;;;20.84;78.78
38852;BME280;24605;50.092;9.182;2022-08-01T07:00:52;98026.84;;;20.94;78.90
38852;BME280;24605;50.092;9.182;2022-08-01T07:03:20;98032.78;;;20.61;80.15
38852;BME280;24605;50.092;9.182;2022-08-01T07:05:46;98031.53;;;20.75;79.50
38852;BME280;24605;50.092;9.182;2022-08-01T07:08:13;98040.41;;;20.69;79.74
38852;BME280;24605;50.092;9.182;2022-08-01T07:10:39;98038.59;;;20.93;79.21
38852;BME280;24605;50.092;9.182;2022-08-01T07:13:06;98030.59;;;20.93;78.87
38852;BME280;24605;50.092;9.182;2022-08-01T07:15:32;98036.72;;;20.70;79.66
38852;BME280;24605;50.092;9.182;2022-08-01T07:17:59;98035.44;;;20.85;78.95
38852;BME280;24605;50.092;9.182;2022-08-01T07:20:30;98034.63;;;20.96;78.73
38852;BME280;24605;50.092;9.182;2022-08-01T07:22:56;98035.44;;;20.85;78.59
38852;BME280;24605;50.092;9.182;2022-08-01T07:25:23;98030.94;;;20.97;78.44
38852;BME280;24605;50.092;9.182;2022-08-01T07:27:49;98027.03;;;21.17;77.85
38852;BME280;24605;50.092;9.182;2022-08-01T07:30:16;98029.75;;;20.93;78.19
38852;BME280;24605;50.092;9.182;2022-08-01T07:32:42;98025.53;;;21.62;75.79
38852;BME280;24605;50.092;9.182;2022-08-01T07:35:09;98026.75;;;22.17;72.60
38852;BME280;24605;50.092;9.182;2022-08-01T07:37:37;98025.47;;;22.36;72.30
38852;BME280;24605;50.092;9.182;2022-08-01T07:40:04;98027.16;;;22.26;71.22
38852;BME280;24605;50.092;9.182;2022-08-01T07:42:31;98030.63;;;22.09;72.37
38852;BME280;24605;50.092;9.182;2022-08-01T07:44:58;98026.63;;;21.78;73.54
38852;BME280;24605;50.092;9.182;2022-08-01T07:47:24;98018.84;;;21.76;72.96
38852;BME280;24605;50.092;9.182;2022-08-01T07:49:51;98019.47;;;21.37;75.64
38852;BME280;24605;50.092;9.182;2022-08-01T07:52:18;98025.03;;;21.77;73.21
38852;BME280;24605;50.092;9.182;2022-08-01T07:54:46;98024.53;;;21.80;73.66
38852;BME280;24605;50.092;9.182;2022-08-01T07:57:13;98031.13;;;22.06;72.81
38852;BME280;24605;50.092;9.182;2022-08-01T07:59:39;98023.94;;;21.78;73.12
38852;BME280;24605;50.092;9.182;2022-08-01T08:02:06;98030.97;;;22.30;71.74
38852;BME280;24605;50.092;9.182;2022-08-01T08:04:32;98030.09;;;22.41;69.98
38852;BME280;24605;50.092;9.182;2022-08-01T08:06:59;98033.00;;;22.22;71.20
38852;BME280;24605;50.092;9.182;2022-08-01T08:09:25;98039.53;;;22.66;69.57
38852;BME280;24605;50.092;9.182;2022-08-01T08:11:53;98030.56;;;22.38;69.68
38852;BME280;24605;50.092;9.182;2022-08-01T08:14:19;98033.88;;;22.28;70.30
38852;BME280;24605;50.092;9.182;2022-08-01T08:16:48;98036.84;;;22.15;70.32
38852;BME280;24605;50.092;9.182;2022-08-01T08:19:14;98031.94;;;22.23;70.06
38852;BME280;24605;50.092;9.182;2022-08-01T08:21:41;98015.91;;;22.41;69.27
38852;BME280;24605;50.092;9.182;2022-08-01T08:24:08;98032.28;;;22.44;69.46
38852;BME280;24605;50.092;9.182;2022-08-01T08:26:50;98031.16;;;22.79;68.74
38852;BME280;24605;50.092;9.182;2022-08-01T08:29:18;98035.00;;;23.06;67.41
38852;BME280;24605;50.092;9.182;2022-08-01T08:31:44;98033.88;;;23.01;67.21
38852;BME280;24605;50.092;9.182;2022-08-01T08:34:11;98029.50;;;22.95;67.53
38852;BME280;24605;50.092;9.182;2022-08-01T08:36:38;98034.28;;;22.93;67.55
38852;BME280;24605;50.092;9.182;2022-08-01T08:39:05;98032.13;;;22.90;66.94
38852;BME280;24605;50.092;9.182;2022-08-01T08:41:32;98034.09;;;22.78;66.71
38852;BME280;24605;50.092;9.182;2022-08-01T08:44:00;98033.66;;;22.47;67.35
38852;BME280;24605;50.092;9.182;2022-08-01T08:46:28;98033.63;;;22.81;65.38
38852;BME280;24605;50.092;9.182;2022-08-01T08:48:59;98029.03;;;22.98;65.49
38852;BME280;24605;50.092;9.182;2022-08-01T08:51:26;98029.78;;;22.94;65.97
38852;BME280;24605;50.092;9.182;2022-08-01T08:53:55;98030.22;;;23.79;63.24
38852;BME280;24605;50.092;9.182;2022-08-01T08:56:23;98029.81;;;23.66;64.13
38852;BME280;24605;50.092;9.182;2022-08-01T08:58:50;98025.59;;;23.70;63.97
38852;BME280;24605;50.092;9.182;2022-08-01T09:01:18;98026.06;;;23.39;64.34
38852;BME280;24605;50.092;9.182;2022-08-01T09:03:45;98031.44;;;23.39;64.62
38852;BME280;24605;50.092;9.182;2022-08-01T09:06:13;98036.84;;;23.22;63.98
38852;BME280;24605;50.092;9.182;2022-08-01T09:08:40;98032.09;;;23.29;63.28
38852;BME280;24605;50.092;9.182;2022-08-01T09:11:06;98037.09;;;23.43;63.05
38852;BME280;24605;50.092;9.182;2022-08-01T09:13:33;98034.91;;;23.67;61.57
38852;BME280;24605;50.092;9.182;2022-08-01T09:15:59;98030.41;;;23.73;61.53
38852;BME280;24605;50.092;9.182;2022-08-01T09:18:29;98034.22;;;24.04;58.25
38852;BME280;24605;50.092;9.182;2022-08-01T09:21:11;98033.63;;;23.70;61.24
38852;BME280;24605;50.092;9.182;2022-08-01T09:23:41;98036.44;;;23.85;59.94
38852;BME280;24605;50.092;9.182;2022-08-01T09:26:09;98040.53;;;24.25;58.98
38852;BME280;24605;50.092;9.182;2022-08-01T09:28:37;98036.13;;;24.41;59.23
38852;BME280;24605;50.092;9.182;2022-08-01T09:31:06;98035.81;;;24.33;59.07
38852;BME280;24605;50.092;9.182;2022-08-01T09:33:51;98029.31;;;23.96;59.87
38852;BME280;24605;50.092;9.182;2022-08-01T09:36:21;98032.66;;;24.08;59.11
38852;BME280;24605;50.092;9.182;2022-08-01T09:38:47;98042.91;;;23.62;60.55
38852;BME280;24605;50.092;9.182;2022-08-01T09:41:14;98049.50;;;23.54;61.04
38852;BME280;24605;50.092;9.182;2022-08-01T09:43:48;98048.41;;;23.50;61.98
38852;BME280;24605;50.092;9.182;2022-08-01T09:46:16;98045.97;;;23.49;61.55
38852;BME280;24605;50.092;9.182;2022-08-01T09:48:55;98040.06;;;23.24;61.61
38852;BME280;24605;50.092;9.182;2022-08-01T09:51:33;98039.81;;;23.26;62.38
38852;BME280;24605;50.092;9.182;2022-08-01T09:54:00;98034.91;;;23.67;61.40
38852;BME280;24605;50.092;9.182;2022-08-01T09:56:36;98045.84;;;23.60;60.86
38852;BME280;24605;50.092;9.182;2022-08-01T09:59:04;98041.81;;;23.36;61.18
38852;BME280;24605;50.092;9.182;2022-08-01T10:01:42;98023.19;;;23.46;58.14
38852;BME280;24605;50.092;9.182;2022-08-01T10:04:11;98015.00;;;23.30;56.87
38852;BME280;24605;50.092;9.182;2022-08-01T10:06:40;98040.28;;;23.45;57.74
38852;BME280;24605;50.092;9.182;2022-08-01T10:09:10;98038.28;;;23.30;57.57
38852;BME280;24605;50.092;9.182;2022-08-01T10:11:37;98026.81;;;23.35;58.37
38852;BME280;24605;50.092;9.182;2022-08-01T10:14:05;98042.63;;;23.63;56.81
38852;BME280;24605;50.092;9.182;2022-08-01T10:16:33;98037.19;;;23.53;58.81
38852;BME280;24605;50.092;9.182;2022-08-01T10:19:01;98036.63;;;23.51;56.20
38852;BME280;24605;50.092;9.182;2022-08-01T10:21:29;98039.97;;;23.63;57.28
38852;BME280;24605;50.092;9.182;2022-08-01T10:24:01;98028.50;;;23.68;56.70
38852;BME280;24605;50.092;9.182;2022-08-01T10:26:32;98022.50;;;24.11;55.67
38852;BME280;24605;50.092;9.182;2022-08-01T10:29:00;98025.66;;;24.40;54.50
38852;BME280;24605;50.092;9.182;2022-08-01T10:31:27;98024.63;;;24.46;53.82
38852;BME280;24605;50.092;9.182;2022-08-01T10:33:58;98036.47;;;24.50;54.25
38852;BME280;24605;50.092;9.182;2022-08-01T10:36:25;98041.00;;;23.62;55.62
38852;BME280;24605;50.092;9.182;2022-08-01T10:38:52;98030.63;;;23.93;54.39
38852;BME280;24605;50.092;9.182;2022-08-01T10:41:21;98023.28;;;24.06;54.61
38852;BME280;24605;50.092;9.182;2022-08-01T10:43:48;98028.06;;;24.04;55.16
38852;BME280;24605;50.092;9.182;2022-08-01T10:46:14;98026.00;;;24.97;53.18
38852;BME280;24605;50.092;9.182;2022-08-01T10:48:45;98033.78;;;24.93;50.55
38852;BME280;24605;50.092;9.182;2022-08-01T10:51:14;98002.16;;;24.52;51.29
38852;BME280;24605;50.092;9.182;2022-08-01T10:53:46;98022.50;;;24.48;52.94
38852;BME280;24605;50.092;9.182;2022-08-01T10:56:13;98031.03;;;24.40;53.08
38852;BME280;24605;50.092;9.182;2022-08-01T10:58:44;98033.34;;;24.31;52.88
38852;BME280;24605;50.092;9.182;2022-08-01T11:01:23;98012.22;;;24.35;53.59
38852;BME280;24605;50.092;9.182;2022-08-01T11:04:03;98010.09;;;24.37;53.36
38852;BME280;24605;50.092;9.182;2022-08-01T11:06:40;98021.06;;;24.73;53.17
38852;BME280;24605;50.092;9.182;2022-08-01T11:09:39;98019.25;;;24.84;52.53
38852;BME280;24605;50.092;9.182;2022-08-01T11:12:08;98006.72;;;25.05;51.03
38852;BME280;24605;50.092;9.182;2022-08-01T11:17:37;98003.47;;;24.93;50.72
38852;BME280;24605;50.092;9.182;2022-08-01T11:20:08;97983.13;;;25.07;49.98
38852;BME280;24605;50.092;9.182;2022-08-01T11:26:20;98005.31;;;25.45;47.87
38852;BME280;24605;50.092;9.182;2022-08-01T11:31:29;97999.03;;;25.34;49.43
38852;BME280;24605;50.092;9.182;2022-08-01T11:33:57;97997.56;;;25.90;48.30
38852;BME280;24605;50.092;9.182;2022-08-01T11:36:24;97998.91;;;26.39;45.84
38852;BME280;24605;50.092;9.182;2022-08-01T11:39:16;98002.88;;;26.78;45.27
38852;BME280;24605;50.092;9.182;2022-08-01T11:41:45;98002.13;;;26.52;45.05
38852;BME280;24605;50.092;9.182;2022-08-01T11:44:15;98013.91;;;26.87;44.09
38852;BME280;24605;50.092;9.182;2022-08-01T11:46:55;97996.38;;;27.00;43.59
38852;BME280;24605;50.092;9.182;2022-08-01T11:49:28;97995.13;;;27.37;43.07
38852;BME280;24605;50.092;9.182;2022-08-01T11:52:04;97998.03;;;26.80;44.76
38852;BME280;24605;50.092;9.182;2022-08-01T11:54:33;97998.03;;;26.70;44.82
38852;BME280;24605;50.092;9.182;2022-08-01T11:57:02;97993.81;;;26.38;45.80
38852;BME280;24605;50.092;9.182;2022-08-01T11:59:35;97989.25;;;26.23;45.40
38852;BME280;24605;50.092;9.182;2022-08-01T12:02:02;97994.31;;;26.55;45.65
38852;BME280;24605;50.092;9.182;2022-08-01T12:07:23;97982.81;;;25.98;46.15
38852;BME280;24605;50.092;9.182;2022-08-01T12:09:58;97993.00;;;25.70;46.33
38852;BME280;24605;50.092;9.182;2022-08-01T12:12:26;97988.44;;;26.07;45.70
38852;BME280;24605;50.092;9.182;2022-08-01T12:14:54;97989.53;;;26.26;45.24
38852;BME280;24605;50.092;9.182;2022-08-01T12:17:28;97988.88;;;26.76;44.28
38852;BME280;24605;50.092;9.182;2022-08-01T12:19:54;97984.91;;;26.48;44.65
38852;BME280;24605;50.092;9.182;2022-08-01T12:22:23;97989.38;;;26.94;43.18
38852;BME280;24605;50.092;9.182;2022-08-01T12:24:51;97987.34;;;27.25;42.40
38852;BME280;24605;50.092;9.182;2022-08-01T12:27:25;97979.78;;;27.32;42.43
38852;BME280;24605;50.092;9.182;2022-08-01T12:29:52;97975.53;;;27.21;42.99
38852;BME280;24605;50.092;9.182;2022-08-01T12:32:24;97961.41;;;27.50;42.26
38852;BME280;24605;50.092;9.182;2022-08-01T12:34:52;97966.41;;;27.67;41.81
38852;BME280;24605;50.092;9.182;2022-08-01T12:37:20;97976.81;;;27.29;42.96
38852;BME280;24605;50.092;9.182;2022-08-01T12:39:48;97979.09;;;27.61;42.20
38852;BME280;24605;50.092;9.182;2022-08-01T12:42:14;97979.81;;;27.27;42.81
38852;BME280;24605;50.092;9.182;2022-08-01T12:44:43;97975.56;;;27.16;42.83
38852;BME280;24605;50.092;9.182;2022-08-01T12:47:11;97975.19;;;27.78;41.92
38852;BME280;24605;50.092;9.182;2022-08-01T12:49:41;97975.00;;;28.04;41.52
38852;BME280;24605;50.092;9.182;2022-08-01T12:52:08;97969.94;;;27.97;41.34
38852;BME280;24605;50.092;9.182;2022-08-01T12:55:03;97970.69;;;28.08;40.77
38852;BME280;24605;50.092;9.182;2022-08-01T12:57:30;97963.28;;;28.97;39.10
38852;BME280;24605;50.092;9.182;2022-08-01T13:00:21;97965.94;;;28.53;39.17
38852;BME280;24605;50.092;9.182;2022-08-01T13:02:49;97954.91;;;28.74;38.43
38852;BME280;24605;50.092;9.182;2022-08-01T13:05:16;97958.50;;;28.64;39.60
38852;BME280;24605;50.092;9.182;2022-08-01T13:07:46;97937.25;;;29.25;38.22
38852;BME280;24605;50.092;9.182;2022-08-01T13:10:24;97952.44;;;29.78;37.36
38852;BME280;24605;50.092;9.182;2022-08-01T13:12:52;97956.41;;;30.00;36.32
38852;BME280;24605;50.092;9.182;2022-08-01T13:15:21;97958.22;;;29.72;36.93
38852;BME280;24605;50.092;9.182;2022-08-01T13:17:48;97944.19;;;29.12;37.69
38852;BME280;24605;50.092;9.182;2022-08-01T13:20:32;97948.53;;;29.51;37.45